createdAt,value
2019-03-29T00:00:00.472Z,0.79
2019-03-29T00:02:29.342Z,0.68
2019-03-29T00:04:58.060Z,0.57
2019-03-29T00:07:39.009Z,0.51
2019-03-29T00:09:57.350Z,0.49
2019-03-29T00:12:26.139Z,0.41
2019-03-29T00:14:54.853Z,0.31
2019-03-29T00:17:23.698Z,0.28
2019-03-29T00:19:52.421Z,0.36
2019-03-29T00:22:23.806Z,0.41
2019-03-29T00:24:53.615Z,0.42
2019-03-29T00:27:22.334Z,0.46
2019-03-29T00:29:51.057Z,0.36
2019-03-29T00:32:19.814Z,0.29
2019-03-29T00:34:48.535Z,0.28
2019-03-29T00:37:17.312Z,0.29
2019-03-29T00:39:46.906Z,0.28
2019-03-29T00:42:16.938Z,0.20
2019-03-29T00:44:45.917Z,0.30
2019-03-29T00:47:14.679Z,0.19
2019-03-29T00:49:43.393Z,0.13
2019-03-29T00:52:12.133Z,0.13
2019-03-29T00:54:40.906Z,0.26
2019-03-29T00:57:09.619Z,0.43
2019-03-29T00:59:38.332Z,0.39
2019-03-29T01:02:07.120Z,0.52
2019-03-29T01:04:35.852Z,0.40
2019-03-29T01:07:04.969Z,0.31
2019-03-29T01:09:34.041Z,0.26
2019-03-29T01:12:02.757Z,0.30
2019-03-29T01:14:31.529Z,0.30
2019-03-29T01:17:00.311Z,0.37
2019-03-29T01:19:29.223Z,0.29
2019-03-29T01:21:58.631Z,0.35
2019-03-29T01:24:27.402Z,0.40
2019-03-29T01:26:56.125Z,0.40
2019-03-29T01:29:24.840Z,0.41
2019-03-29T01:31:53.701Z,0.76
2019-03-29T01:34:22.434Z,0.87
2019-03-29T01:36:51.144Z,0.62
2019-03-29T01:39:20.037Z,0.54
2019-03-29T01:41:48.763Z,0.51
2019-03-29T01:44:17.480Z,0.43
2019-03-29T01:46:46.242Z,0.20
2019-03-29T01:49:15.882Z,0.10
2019-03-29T01:51:44.762Z,0.09
2019-03-29T01:54:13.841Z,-0.11
2019-03-29T01:56:42.569Z,-0.09
2019-03-29T01:59:11.289Z,-0.22
2019-03-29T02:01:40.146Z,-0.22
2019-03-29T02:04:08.877Z,-0.13
2019-03-29T02:06:37.606Z,-0.18
2019-03-29T02:09:06.657Z,-0.01
2019-03-29T02:11:35.382Z,0.04
2019-03-29T02:14:04.211Z,-0.02
2019-03-29T02:16:33.042Z,-0.08
2019-03-29T02:19:01.765Z,0.02
2019-03-29T02:21:30.905Z,0.05
2019-03-29T02:23:59.791Z,0.07
2019-03-29T02:26:28.522Z,0.07
2019-03-29T02:28:57.247Z,0.24
2019-03-29T02:31:27.795Z,0.31
2019-03-29T02:33:56.791Z,0.32
2019-03-29T02:36:25.517Z,0.18
2019-03-29T02:38:56.254Z,0.24
2019-03-29T02:41:24.735Z,0.21
2019-03-29T02:43:53.456Z,0.27
2019-03-29T02:46:22.252Z,0.38
2019-03-29T02:48:50.981Z,0.21
2019-03-29T02:51:19.702Z,0.20
2019-03-29T02:53:48.515Z,0.14
2019-03-29T02:56:17.270Z,0.12
2019-03-29T02:58:45.969Z,0.16
2019-03-29T03:01:14.767Z,0.15
2019-03-29T03:03:43.487Z,0.20
2019-03-29T03:06:12.204Z,0.27
2019-03-29T03:08:40.995Z,0.25
2019-03-29T03:11:09.717Z,0.13
2019-03-29T03:13:38.443Z,0.06
2019-03-29T03:16:07.319Z,0.14
2019-03-29T03:18:36.315Z,-0.03
2019-03-29T03:21:05.039Z,-0.08
2019-03-29T03:23:33.836Z,-0.12
2019-03-29T03:26:02.561Z,-0.28
2019-03-29T03:28:31.286Z,-0.40
2019-03-29T03:31:00.176Z,-0.45
2019-03-29T03:33:28.906Z,-0.53
2019-03-29T03:35:57.647Z,-0.62
2019-03-29T03:38:26.524Z,-0.67
2019-03-29T03:40:55.229Z,-0.73
2019-03-29T03:43:23.963Z,-0.83
2019-03-29T03:45:52.778Z,-0.89
2019-03-29T03:48:21.504Z,-0.97
2019-03-29T03:50:50.235Z,-1.03
2019-03-29T03:53:19.112Z,-1.04
2019-03-29T03:55:47.837Z,-1.10
2019-03-29T03:58:17.979Z,-1.06
2019-03-29T04:00:55.312Z,-0.93
2019-03-29T04:03:24.611Z,-1.10
2019-03-29T04:05:53.355Z,-1.21
2019-03-29T04:08:22.317Z,-1.25
2019-03-29T04:10:51.051Z,-1.26
2019-03-29T04:13:19.776Z,-1.29
2019-03-29T04:15:48.617Z,-1.17
2019-03-29T04:18:17.397Z,-1.09
2019-03-29T04:20:46.226Z,-1.13
2019-03-29T04:23:15.105Z,-0.87
2019-03-29T04:25:43.857Z,-0.82
2019-03-29T04:28:12.697Z,-0.86
2019-03-29T04:30:41.473Z,-0.95
2019-03-29T04:33:11.308Z,-1.13
2019-03-29T04:35:40.420Z,-1.35
2019-03-29T04:38:09.381Z,-1.11
2019-03-29T04:40:38.103Z,-1.09
2019-03-29T04:43:06.839Z,-1.07
2019-03-29T04:45:36.183Z,-1.26
2019-03-29T04:48:06.140Z,-1.39
2019-03-29T04:50:34.846Z,-1.29
2019-03-29T04:53:03.614Z,-1.05
2019-03-29T04:55:32.344Z,-0.96
2019-03-29T04:58:01.070Z,-0.80
2019-03-29T05:00:30.106Z,-0.87
2019-03-29T05:02:58.833Z,-0.76
2019-03-29T05:05:27.561Z,-0.51
2019-03-29T05:07:56.445Z,-0.39
2019-03-29T05:10:25.176Z,-0.43
2019-03-29T05:12:53.906Z,-0.22
2019-03-29T05:15:22.688Z,-0.24
2019-03-29T05:17:51.425Z,-0.15
2019-03-29T05:20:20.146Z,0.25
2019-03-29T05:22:48.944Z,0.24
2019-03-29T05:25:17.667Z,0.58
2019-03-29T05:27:46.395Z,0.51
2019-03-29T05:30:15.582Z,0.42
2019-03-29T05:32:44.312Z,0.47
2019-03-29T05:35:13.037Z,0.59
2019-03-29T05:37:41.817Z,0.40
2019-03-29T05:40:10.554Z,0.71
2019-03-29T05:42:39.280Z,0.65
2019-03-29T05:45:08.329Z,0.97
2019-03-29T05:47:37.068Z,1.26
2019-03-29T05:50:07.516Z,1.58
2019-03-29T05:52:48.777Z,1.84
2019-03-29T05:55:17.496Z,2.02
2019-03-29T05:57:46.234Z,2.01
2019-03-29T06:00:16.926Z,2.24
2019-03-29T06:02:45.657Z,2.30
2019-03-29T06:05:14.394Z,2.38
2019-03-29T06:07:43.278Z,2.44
2019-03-29T06:10:12.307Z,2.76
2019-03-29T06:12:41.053Z,3.27
2019-03-29T06:15:10.013Z,3.63
2019-03-29T06:17:48.668Z,3.67
2019-03-29T06:20:09.692Z,4.07
2019-03-29T06:22:41.878Z,4.11
2019-03-29T06:25:12.310Z,4.38
2019-03-29T06:27:41.024Z,4.68
2019-03-29T06:30:10.407Z,4.99
2019-03-29T06:32:39.137Z,5.25
2019-03-29T06:35:08.380Z,5.67
2019-03-29T06:37:39.529Z,6.29
2019-03-29T06:40:11.160Z,6.86
2019-03-29T06:42:41.694Z,7.06
2019-03-29T06:45:11.110Z,6.97
2019-03-29T06:47:39.837Z,7.09
2019-03-29T06:50:08.655Z,7.04
2019-03-29T06:52:37.427Z,7.34
2019-03-29T06:55:06.539Z,7.77
2019-03-29T06:57:35.272Z,7.98
2019-03-29T07:00:04.864Z,8.56
2019-03-29T07:02:33.583Z,8.83
2019-03-29T07:05:02.314Z,8.97
2019-03-29T07:07:31.182Z,9.24
2019-03-29T07:09:59.913Z,9.21
2019-03-29T07:12:28.628Z,9.37
2019-03-29T07:14:57.373Z,9.51
2019-03-29T07:17:26.154Z,9.87
2019-03-29T07:19:54.886Z,9.82
2019-03-29T07:22:23.683Z,10.16
2019-03-29T07:24:52.395Z,9.78
2019-03-29T07:27:21.942Z,10.04
2019-03-29T07:29:50.731Z,10.17
2019-03-29T07:32:19.448Z,10.14
2019-03-29T07:34:49.323Z,10.65
2019-03-29T07:37:18.627Z,10.83
2019-03-29T07:39:47.349Z,10.59
2019-03-29T07:42:16.070Z,10.94
2019-03-29T07:44:44.963Z,11.28
2019-03-29T07:47:13.685Z,11.25
2019-03-29T07:49:42.407Z,11.30
2019-03-29T07:52:11.192Z,11.13
2019-03-29T07:54:39.916Z,11.17
2019-03-29T07:57:08.639Z,11.27
2019-03-29T07:59:37.731Z,11.46
2019-03-29T08:02:06.465Z,11.43
2019-03-29T08:04:35.191Z,11.64
2019-03-29T08:07:03.966Z,11.92
2019-03-29T08:09:32.680Z,11.88
2019-03-29T08:12:01.418Z,11.97
2019-03-29T08:14:30.375Z,11.96
2019-03-29T08:16:59.174Z,12.34
2019-03-29T08:19:27.891Z,12.34
2019-03-29T08:21:57.951Z,12.26
2019-03-29T08:24:26.870Z,12.13
2019-03-29T08:26:55.589Z,12.35
2019-03-29T08:29:24.684Z,12.20
2019-03-29T08:31:55.489Z,12.72
2019-03-29T08:34:23.860Z,12.65
2019-03-29T08:36:53.001Z,12.44
2019-03-29T08:39:27.873Z,12.14
2019-03-29T08:42:00.081Z,12.02
2019-03-29T08:44:22.656Z,12.38
2019-03-29T08:46:51.391Z,12.81
2019-03-29T08:49:20.113Z,13.42
2019-03-29T08:51:48.918Z,13.83
2019-03-29T08:54:17.646Z,13.61
2019-03-29T08:56:46.370Z,13.46
2019-03-29T08:59:17.451Z,13.64
2019-03-29T09:01:45.916Z,13.89
2019-03-29T09:04:14.638Z,14.20
2019-03-29T09:06:53.325Z,14.87
2019-03-29T09:09:14.154Z,14.62
2019-03-29T09:11:42.879Z,13.87
2019-03-29T09:14:11.773Z,13.87
2019-03-29T09:16:40.499Z,14.51
2019-03-29T09:19:09.226Z,14.79
2019-03-29T09:21:38.369Z,14.41
2019-03-29T09:24:20.742Z,14.73
2019-03-29T09:26:37.530Z,14.53
2019-03-29T09:29:06.398Z,14.78
2019-03-29T09:31:35.133Z,15.60
2019-03-29T09:34:03.860Z,16.19
2019-03-29T09:36:32.740Z,15.62
2019-03-29T09:39:01.478Z,15.97
2019-03-29T09:41:30.205Z,15.64
2019-03-29T09:43:58.982Z,15.83
2019-03-29T09:46:27.687Z,15.65
2019-03-29T09:48:56.409Z,15.47
2019-03-29T09:51:25.335Z,15.62
2019-03-29T09:53:54.056Z,15.21
2019-03-29T09:56:22.785Z,14.75
2019-03-29T09:58:51.591Z,15.26
2019-03-29T10:01:20.898Z,15.43
2019-03-29T10:03:49.819Z,16.14
2019-03-29T10:06:18.697Z,16.19
2019-03-29T10:08:47.416Z,17.09
2019-03-29T10:11:16.143Z,17.65
2019-03-29T10:13:45.398Z,17.42
2019-03-29T10:16:14.128Z,17.76
2019-03-29T10:18:42.846Z,17.37
2019-03-29T10:21:11.616Z,16.30
2019-03-29T10:23:40.344Z,15.78
2019-03-29T10:26:09.075Z,15.32
2019-03-29T10:28:37.941Z,15.31
2019-03-29T10:31:06.676Z,15.62
2019-03-29T10:33:35.402Z,16.59
2019-03-29T10:36:04.180Z,17.28
2019-03-29T10:38:32.906Z,16.65
2019-03-29T10:41:01.627Z,16.44
2019-03-29T10:43:30.752Z,17.08
2019-03-29T10:45:59.597Z,17.12
2019-03-29T10:48:28.323Z,16.95
2019-03-29T10:50:57.318Z,17.05
2019-03-29T10:53:28.716Z,16.73
2019-03-29T10:55:56.489Z,16.03
2019-03-29T10:58:25.253Z,16.03
2019-03-29T11:00:54.036Z,16.83
2019-03-29T11:03:22.766Z,16.69
2019-03-29T11:05:51.618Z,16.21
2019-03-29T11:08:20.334Z,15.98
2019-03-29T11:10:49.056Z,16.59
2019-03-29T11:13:18.004Z,17.03
2019-03-29T11:15:46.842Z,16.35
2019-03-29T11:18:15.874Z,16.39
2019-03-29T11:20:44.747Z,16.28
2019-03-29T11:23:13.473Z,16.20
2019-03-29T11:25:42.198Z,16.82
2019-03-29T11:28:10.980Z,17.35
2019-03-29T11:30:42.406Z,17.91
2019-03-29T11:33:10.159Z,17.83
2019-03-29T11:35:38.991Z,17.64
2019-03-29T11:38:07.730Z,16.50
2019-03-29T11:40:36.448Z,15.80
2019-03-29T11:43:05.631Z,15.65
2019-03-29T11:45:34.749Z,15.35
2019-03-29T11:48:08.767Z,14.97
2019-03-29T11:50:34.011Z,15.36
2019-03-29T11:53:02.733Z,15.43
2019-03-29T11:55:31.466Z,15.43
2019-03-29T11:58:00.334Z,16.24
2019-03-29T12:00:36.640Z,15.93
2019-03-29T12:03:09.194Z,15.65
2019-03-29T12:05:37.268Z,15.68
2019-03-29T12:08:06.487Z,15.73
2019-03-29T12:10:35.450Z,15.38
2019-03-29T12:13:04.874Z,15.01
2019-03-29T12:15:33.602Z,14.67
2019-03-29T12:18:02.466Z,14.52
2019-03-29T12:20:31.194Z,14.48
2019-03-29T12:23:00.018Z,15.20
2019-03-29T12:25:29.173Z,16.12
2019-03-29T12:27:57.891Z,16.38
2019-03-29T12:30:31.940Z,16.18
2019-03-29T12:32:57.453Z,15.73
2019-03-29T12:35:26.174Z,15.36
2019-03-29T12:37:54.930Z,14.96
2019-03-29T12:40:23.818Z,14.52
2019-03-29T12:42:52.547Z,14.39
2019-03-29T12:45:22.739Z,14.32
2019-03-29T12:47:51.611Z,14.22
2019-03-29T12:50:20.333Z,14.16
2019-03-29T12:52:49.066Z,13.83
2019-03-29T12:55:18.364Z,13.50
2019-03-29T12:57:47.101Z,13.50
2019-03-29T13:00:16.438Z,13.43
2019-03-29T13:02:45.297Z,13.52
2019-03-29T13:05:14.121Z,13.38
2019-03-29T13:07:42.852Z,13.51
2019-03-29T13:10:12.118Z,13.49
2019-03-29T13:12:40.846Z,13.68
2019-03-29T13:15:09.969Z,14.04
2019-03-29T13:17:39.358Z,13.77
2019-03-29T13:20:08.788Z,14.03
2019-03-29T13:22:37.619Z,14.25
2019-03-29T13:25:07.833Z,14.27
2019-03-29T13:27:36.597Z,14.18
2019-03-29T13:30:07.493Z,14.32
2019-03-29T13:32:36.349Z,14.45
2019-03-29T13:35:06.772Z,14.45
2019-03-29T13:37:35.497Z,14.53
2019-03-29T13:40:09.696Z,14.58
2019-03-29T13:42:38.447Z,14.60
2019-03-29T13:45:08.672Z,14.52
2019-03-29T13:47:37.675Z,14.43
2019-03-29T13:50:09.002Z,14.59
2019-03-29T13:52:48.439Z,14.52
2019-03-29T13:55:17.184Z,14.39
2019-03-29T13:57:48.214Z,14.45
2019-03-29T14:00:18.091Z,14.42
2019-03-29T14:02:46.811Z,14.15
2019-03-29T14:05:15.636Z,13.96
2019-03-29T14:07:44.507Z,13.56
2019-03-29T14:10:13.728Z,13.55
2019-03-29T14:12:42.454Z,13.41
2019-03-29T14:15:12.555Z,13.24
2019-03-29T14:17:41.280Z,13.15
2019-03-29T14:20:10.506Z,13.17
2019-03-29T14:22:39.465Z,13.17
2019-03-29T14:25:09.703Z,13.09
2019-03-29T14:27:38.512Z,13.07
2019-03-29T14:30:08.876Z,13.17
2019-03-29T14:32:37.597Z,13.15
2019-03-29T14:35:08.440Z,13.03
2019-03-29T14:37:37.229Z,12.96
2019-03-29T14:40:08.257Z,13.02
2019-03-29T14:42:36.995Z,13.00
2019-03-29T14:45:07.437Z,13.27
2019-03-29T14:47:43.301Z,13.39
2019-03-29T14:50:08.410Z,13.64
2019-03-29T14:52:37.306Z,13.44
2019-03-29T14:55:07.035Z,13.21
2019-03-29T14:57:35.768Z,13.14
2019-03-29T15:00:07.061Z,13.21
2019-03-29T15:02:35.793Z,13.32
2019-03-29T15:05:07.009Z,13.35
2019-03-29T15:07:36.982Z,13.16
2019-03-29T15:10:14.435Z,13.28
2019-03-29T15:12:43.313Z,13.61
2019-03-29T15:15:12.039Z,13.67
2019-03-29T15:17:40.762Z,13.53
2019-03-29T15:20:09.923Z,13.24
2019-03-29T15:22:38.649Z,12.86
2019-03-29T15:25:07.477Z,12.53
2019-03-29T15:27:36.342Z,12.23
2019-03-29T15:30:07.475Z,12.06
2019-03-29T15:32:36.210Z,12.04
2019-03-29T15:35:06.595Z,11.94
2019-03-29T15:37:35.322Z,11.76
2019-03-29T15:40:05.654Z,11.96
2019-03-29T15:42:34.975Z,12.03
2019-03-29T15:45:04.799Z,11.96
2019-03-29T15:47:33.598Z,12.24
2019-03-29T15:50:02.753Z,12.50
2019-03-29T15:52:31.495Z,12.73
2019-03-29T15:55:00.380Z,12.74
2019-03-29T15:57:29.280Z,12.44
2019-03-29T15:59:58.010Z,12.09
2019-03-29T16:02:26.753Z,11.82
2019-03-29T16:04:55.666Z,11.74
2019-03-29T16:07:24.396Z,11.80
2019-03-29T16:09:53.127Z,11.61
2019-03-29T16:12:22.030Z,11.46
2019-03-29T16:14:50.760Z,11.33
2019-03-29T16:17:19.496Z,11.21
2019-03-29T16:19:48.263Z,11.05
2019-03-29T16:22:17.011Z,11.09
2019-03-29T16:24:45.759Z,11.07
2019-03-29T16:27:14.625Z,10.88
2019-03-29T16:29:43.448Z,10.71
2019-03-29T16:32:12.181Z,10.60
2019-03-29T16:34:41.053Z,10.22
2019-03-29T16:37:09.772Z,10.09
2019-03-29T16:39:38.495Z,10.10
2019-03-29T16:42:07.378Z,9.91
2019-03-29T16:44:36.094Z,9.82
2019-03-29T16:47:04.820Z,9.67
2019-03-29T16:49:33.691Z,9.55
2019-03-29T16:52:02.427Z,9.54
2019-03-29T16:54:31.153Z,9.35
2019-03-29T16:56:59.949Z,9.14
2019-03-29T16:59:28.681Z,8.97
2019-03-29T17:01:57.416Z,8.94
2019-03-29T17:04:26.203Z,8.89
2019-03-29T17:06:54.930Z,8.91
2019-03-29T17:09:23.653Z,8.87
2019-03-29T17:11:52.529Z,8.71
2019-03-29T17:14:21.247Z,8.54
2019-03-29T17:16:52.801Z,8.46
2019-03-29T17:19:20.476Z,8.14
2019-03-29T17:21:49.202Z,8.07
2019-03-29T17:24:17.938Z,8.05
2019-03-29T17:26:46.882Z,8.08
2019-03-29T17:29:18.102Z,8.06
2019-03-29T17:31:46.829Z,7.99
2019-03-29T17:34:16.416Z,7.90
2019-03-29T17:36:45.151Z,7.83
2019-03-29T17:39:13.888Z,7.70
2019-03-29T17:41:42.747Z,7.59
2019-03-29T17:44:11.476Z,7.61
2019-03-29T17:46:40.267Z,7.60
2019-03-29T17:49:09.075Z,7.92
2019-03-29T17:51:37.795Z,8.06
2019-03-29T17:54:06.523Z,8.08
2019-03-29T17:56:35.325Z,8.05
2019-03-29T17:59:04.055Z,8.04
2019-03-29T18:01:32.776Z,7.81
2019-03-29T18:04:01.539Z,7.73
2019-03-29T18:06:30.276Z,7.79
2019-03-29T18:08:59.003Z,7.59
2019-03-29T18:11:28.054Z,7.49
2019-03-29T18:13:56.782Z,7.35
2019-03-29T18:16:30.868Z,7.20
2019-03-29T18:18:56.150Z,7.16
2019-03-29T18:21:24.877Z,7.23
2019-03-29T18:23:53.618Z,7.15
2019-03-29T18:26:22.489Z,7.15
2019-03-29T18:28:51.219Z,6.86
2019-03-29T18:31:20.019Z,6.63
2019-03-29T18:33:49.086Z,6.47
2019-03-29T18:36:17.818Z,6.34
2019-03-29T18:38:49.044Z,6.34
2019-03-29T18:41:17.895Z,6.28
2019-03-29T18:43:46.614Z,6.37
2019-03-29T18:46:15.337Z,6.50
2019-03-29T18:48:46.921Z,6.48
2019-03-29T18:51:15.656Z,6.35
2019-03-29T18:53:44.385Z,6.49
2019-03-29T18:56:13.175Z,6.66
2019-03-29T18:58:41.898Z,6.71
2019-03-29T19:01:10.724Z,6.87
2019-03-29T19:03:39.602Z,6.82
2019-03-29T19:06:08.326Z,6.78
2019-03-29T19:08:37.051Z,6.61
2019-03-29T19:11:05.929Z,6.55
2019-03-29T19:13:34.658Z,6.51
2019-03-29T19:16:03.394Z,6.31
2019-03-29T19:18:32.206Z,6.08
2019-03-29T19:21:00.934Z,5.86
2019-03-29T19:23:29.659Z,5.73
2019-03-29T19:25:58.468Z,5.79
2019-03-29T19:28:27.182Z,5.74
2019-03-29T19:30:55.901Z,5.67
2019-03-29T19:33:24.716Z,5.65
2019-03-29T19:35:53.438Z,5.80
2019-03-29T19:38:22.148Z,5.89
2019-03-29T19:40:51.270Z,5.81
2019-03-29T19:43:20.289Z,5.74
2019-03-29T19:45:49.178Z,5.74
2019-03-29T19:48:18.247Z,5.51
2019-03-29T19:50:47.276Z,5.35
2019-03-29T19:53:17.315Z,5.31
2019-03-29T19:55:46.197Z,5.36
2019-03-29T19:58:14.991Z,5.36
2019-03-29T20:00:44.457Z,5.36
2019-03-29T20:03:13.319Z,5.35
2019-03-29T20:05:42.022Z,5.30
2019-03-29T20:08:10.740Z,5.22
2019-03-29T20:10:39.802Z,5.32
2019-03-29T20:13:08.516Z,5.49
2019-03-29T20:15:37.336Z,5.46
2019-03-29T20:18:06.396Z,5.46
2019-03-29T20:20:35.119Z,5.92
2019-03-29T20:23:06.997Z,5.85
2019-03-29T20:25:35.781Z,5.64
2019-03-29T20:28:04.711Z,5.64
2019-03-29T20:30:33.415Z,5.67
2019-03-29T20:33:02.614Z,5.56
2019-03-29T20:35:31.471Z,5.50
2019-03-29T20:38:00.207Z,5.41
2019-03-29T20:40:31.965Z,5.22
2019-03-29T20:42:59.448Z,5.05
2019-03-29T20:45:28.161Z,5.02
2019-03-29T20:47:57.023Z,4.96
2019-03-29T20:50:26.341Z,4.88
2019-03-29T20:52:55.113Z,4.96
2019-03-29T20:55:23.957Z,4.85
2019-03-29T20:57:52.680Z,4.71
2019-03-29T21:00:21.490Z,4.76
2019-03-29T21:02:50.355Z,4.69
2019-03-29T21:05:19.074Z,4.73
2019-03-29T21:07:47.787Z,4.67
2019-03-29T21:10:16.752Z,4.67
2019-03-29T21:12:45.513Z,4.63
2019-03-29T21:15:14.361Z,4.71
2019-03-29T21:17:55.831Z,4.69
2019-03-29T21:20:14.637Z,4.67
2019-03-29T21:22:43.354Z,4.62
2019-03-29T21:25:12.427Z,4.58
2019-03-29T21:27:41.143Z,4.56
2019-03-29T21:30:11.865Z,4.54
2019-03-29T21:32:40.662Z,4.59
2019-03-29T21:35:09.377Z,4.41
2019-03-29T21:37:38.102Z,4.39
2019-03-29T21:40:08.772Z,4.43
2019-03-29T21:42:37.698Z,4.35
2019-03-29T21:45:08.110Z,4.34
2019-03-29T21:47:36.869Z,4.24
2019-03-29T21:50:08.086Z,4.17
2019-03-29T21:52:36.918Z,4.06
2019-03-29T21:55:07.189Z,4.03
2019-03-29T21:57:35.915Z,3.86
2019-03-29T22:00:12.397Z,3.87
2019-03-29T22:02:41.116Z,3.93
2019-03-29T22:05:10.707Z,3.90
2019-03-29T22:07:39.923Z,3.81
2019-03-29T22:10:10.147Z,3.82
2019-03-29T22:12:38.959Z,3.74
2019-03-29T22:15:08.827Z,3.75
2019-03-29T22:17:53.700Z,3.55
2019-03-29T22:20:18.153Z,3.53
2019-03-29T22:22:47.184Z,3.40
2019-03-29T22:25:16.073Z,3.09
2019-03-29T22:27:44.944Z,2.75
2019-03-29T22:30:17.867Z,2.47
2019-03-29T22:32:53.629Z,2.58
2019-03-29T22:35:22.356Z,2.46
2019-03-29T22:37:51.083Z,2.46
2019-03-29T22:40:20.314Z,2.41
2019-03-29T22:42:49.716Z,2.43
2019-03-29T22:45:18.439Z,2.70
2019-03-29T22:47:47.298Z,3.00
2019-03-29T22:50:16.125Z,3.20
2019-03-29T22:52:44.839Z,3.33
2019-03-29T22:55:13.636Z,3.20
2019-03-29T22:57:42.614Z,3.35
2019-03-29T23:00:16.969Z,3.13
2019-03-29T23:02:45.946Z,3.19
2019-03-29T23:05:14.859Z,3.40
2019-03-29T23:07:43.585Z,3.36
2019-03-29T23:10:12.554Z,3.44
2019-03-29T23:12:41.283Z,3.35
2019-03-29T23:15:10.022Z,3.35
2019-03-29T23:17:38.952Z,3.39
2019-03-29T23:20:07.867Z,3.56
2019-03-29T23:22:36.584Z,3.48
2019-03-29T23:25:06.341Z,3.49
2019-03-29T23:27:35.359Z,3.50
2019-03-29T23:30:05.786Z,3.46
2019-03-29T23:32:34.860Z,3.43
2019-03-29T23:35:04.186Z,3.42
2019-03-29T23:37:32.911Z,3.51
2019-03-29T23:40:01.696Z,3.63
2019-03-29T23:42:30.420Z,3.48
2019-03-29T23:44:59.138Z,3.34
2019-03-29T23:47:27.999Z,3.20
2019-03-29T23:49:56.714Z,3.18
2019-03-29T23:52:25.532Z,3.14
2019-03-29T23:54:54.417Z,3.11
2019-03-29T23:57:23.131Z,3.07
2019-03-29T23:59:51.910Z,3.00
